createdAt,value
2016-06-01T00:00:48.072Z,1005.3
2016-06-01T00:04:01.377Z,1005.3
2016-06-01T00:07:14.354Z,1005.32
2016-06-01T00:10:27.837Z,1005.36
2016-06-01T00:13:41.268Z,1005.24
2016-06-01T00:16:54.554Z,1005.24
2016-06-01T00:20:11.430Z,1005.24
2016-06-01T00:23:15.870Z,1005.26
2016-06-01T00:26:28.775Z,1005.28
2016-06-01T00:29:41.599Z,1005.2
2016-06-01T00:32:54.533Z,1005.18
2016-06-01T00:36:11.792Z,1005.08
2016-06-01T00:39:17.081Z,1005.26
2016-06-01T00:42:26.105Z,1005.1
2016-06-01T00:45:39.410Z,1005.2
2016-06-01T00:48:52.686Z,1005.2
2016-06-01T00:52:09.897Z,1005.2
2016-06-01T00:55:14.515Z,1005.22
2016-06-01T00:58:28.335Z,1005.24
2016-06-01T01:01:41.781Z,1005.24
2016-06-01T01:04:55.120Z,1005.26
2016-06-01T01:08:12.628Z,1005.18
2016-06-01T01:11:17.277Z,1005.26
2016-06-01T01:14:30.425Z,1005.16
2016-06-01T01:17:43.543Z,1005.28
2016-06-01T01:20:56.647Z,1005.32
2016-06-01T01:24:14.187Z,1005.12
2016-06-01T01:27:18.695Z,1005.18
2016-06-01T01:30:32.078Z,1005.14
2016-06-01T01:33:45.429Z,1005.1
2016-06-01T01:36:58.753Z,1005.14
2016-06-01T01:40:15.511Z,1005.18
2016-06-01T01:43:19.863Z,1005.06
2016-06-01T01:46:32.511Z,1005.08
2016-06-01T01:49:46.160Z,1005.04
2016-06-01T01:52:59.827Z,1005.12
2016-06-01T01:56:17.257Z,1005.08
2016-06-01T01:59:21.718Z,1005.02
2016-06-01T02:02:35.148Z,1005
2016-06-01T02:05:48.453Z,1004.92
2016-06-01T02:09:02.025Z,1005.02
2016-06-01T02:12:14.737Z,1004.98
2016-06-01T02:15:27.980Z,1004.9
2016-06-01T02:18:41.128Z,1004.88
2016-06-01T02:21:54.218Z,1004.88
2016-06-01T02:25:11.413Z,1004.82
2016-06-01T02:28:15.796Z,1004.78
2016-06-01T02:31:29.102Z,1004.78
2016-06-01T02:34:42.343Z,1004.82
2016-06-01T02:37:55.541Z,1004.92
2016-06-01T02:41:12.644Z,1004.98
2016-06-01T02:44:17.402Z,1004.92
2016-06-01T02:47:30.628Z,1004.84
2016-06-01T02:50:43.761Z,1004.86
2016-06-01T02:53:56.741Z,1004.9
2016-06-01T02:57:12.718Z,1004.8
2016-06-01T03:00:17.210Z,1004.76
2016-06-01T03:03:29.499Z,1004.76
2016-06-01T03:06:43.945Z,1004.76
2016-06-01T03:09:57.268Z,1004.73
2016-06-01T03:13:14.667Z,1004.73
2016-06-01T03:16:19.269Z,1004.75
2016-06-01T03:19:32.371Z,1004.76
2016-06-01T03:22:45.582Z,1004.73
2016-06-01T03:25:58.983Z,1004.71
2016-06-01T03:29:16.444Z,1004.67
2016-06-01T03:32:21.141Z,1004.67
2016-06-01T03:35:34.570Z,1004.76
2016-06-01T03:38:47.860Z,1004.73
2016-06-01T03:42:01.214Z,1004.75
2016-06-01T03:45:14.535Z,1004.67
2016-06-01T03:48:27.574Z,1004.69
2016-06-01T03:51:40.817Z,1004.51
2016-06-01T03:54:54.233Z,1004.59
2016-06-01T03:58:11.257Z,1004.53
2016-06-01T04:01:15.843Z,1004.57
2016-06-01T04:04:29.086Z,1004.53
2016-06-01T04:07:42.594Z,1004.61
2016-06-01T04:10:55.745Z,1004.69
2016-06-01T04:14:12.659Z,1004.53
2016-06-01T04:17:17.323Z,1004.51
2016-06-01T04:20:29.598Z,1004.51
2016-06-01T04:23:43.214Z,1004.45
2016-06-01T04:26:56.429Z,1004.47
2016-06-01T04:30:13.734Z,1004.51
2016-06-01T04:33:18.320Z,1004.47
2016-06-01T04:36:29.234Z,1004.45
2016-06-01T04:39:42.555Z,1004.37
2016-06-01T04:42:55.956Z,1004.29
2016-06-01T04:46:13.183Z,1004.41
2016-06-01T04:49:17.676Z,1004.45
2016-06-01T04:52:30.887Z,1004.41
2016-06-01T04:55:44.192Z,1004.35
2016-06-01T04:58:57.637Z,1004.43
2016-06-01T05:02:14.773Z,1004.25
2016-06-01T05:05:19.327Z,1004.35
2016-06-01T05:08:32.133Z,1004.39
2016-06-01T05:11:45.468Z,1004.23
2016-06-01T05:14:58.901Z,1004.37
2016-06-01T05:18:16.222Z,1004.31
2016-06-01T05:21:20.793Z,1004.33
2016-06-01T05:24:34.411Z,1004.31
2016-06-01T05:27:47.419Z,1004.35
2016-06-01T05:31:00.382Z,1004.33
2016-06-01T05:34:17.405Z,1004.37
2016-06-01T05:37:22.039Z,1004.41
2016-06-01T05:40:35.281Z,1004.41
2016-06-01T05:43:48.476Z,1004.43
2016-06-01T05:47:01.862Z,1004.35
2016-06-01T05:50:14.981Z,1004.37
2016-06-01T05:53:28.066Z,1004.37
2016-06-01T05:56:38.653Z,1004.47
2016-06-01T05:59:51.833Z,1004.37
2016-06-01T06:03:09.156Z,1004.35
2016-06-01T06:06:17.710Z,1004.39
2016-06-01T06:09:22.437Z,1004.39
2016-06-01T06:12:35.415Z,1004.31
2016-06-01T06:15:49.844Z,1004.37
2016-06-01T06:19:00.195Z,1004.41
2016-06-01T06:22:17.300Z,1004.49
2016-06-01T06:25:21.887Z,1004.53
2016-06-01T06:28:35.113Z,1004.51
2016-06-01T06:31:48.527Z,1004.51
2016-06-01T06:35:01.646Z,1004.59
2016-06-01T06:38:18.781Z,1004.57
2016-06-01T06:41:23.586Z,1004.47
2016-06-01T06:44:36.954Z,1004.53
2016-06-01T06:47:50.321Z,1004.39
2016-06-01T06:51:03.676Z,1004.37
2016-06-01T06:54:16.949Z,1004.45
2016-06-01T06:57:30.192Z,1004.37
2016-06-01T07:00:44.465Z,1004.45
2016-06-01T07:03:56.770Z,1004.43
2016-06-01T07:07:14.140Z,1004.45
2016-06-01T07:10:18.743Z,1004.45
2016-06-01T07:13:31.907Z,1004.29
2016-06-01T07:16:45.304Z,1004.41
2016-06-01T07:19:58.579Z,1004.37
2016-06-01T07:23:15.870Z,1004.25
2016-06-01T07:26:20.489Z,1004.27
2016-06-01T07:29:33.747Z,1004.33
2016-06-01T07:32:46.880Z,1004.41
2016-06-01T07:36:00.403Z,1004.27
2016-06-01T07:39:17.820Z,1004.43
2016-06-01T07:42:22.469Z,1004.33
2016-06-01T07:45:35.773Z,1004.29
2016-06-01T07:48:49.126Z,1004.35
2016-06-01T07:52:02.587Z,1004.31
2016-06-01T07:55:15.535Z,1004.43
2016-06-01T07:58:28.778Z,1004.43
2016-06-01T08:01:41.769Z,1004.39
2016-06-01T08:04:55.075Z,1004.41
2016-06-01T08:08:09.430Z,1004.49
2016-06-01T08:11:17.890Z,1004.31
2016-06-01T08:14:22.274Z,1004.47
2016-06-01T08:17:35.516Z,1004.31
2016-06-01T08:20:48.306Z,1004.43
2016-06-01T08:24:01.485Z,1004.41
2016-06-01T08:27:18.668Z,1004.43
2016-06-01T08:30:23.145Z,1004.43
2016-06-01T08:33:36.543Z,1004.53
2016-06-01T08:36:49.786Z,1004.47
2016-06-01T08:40:03.325Z,1004.47
2016-06-01T08:43:16.461Z,1004.49
2016-06-01T08:46:29.704Z,1004.37
2016-06-01T08:49:43.149Z,1004.45
2016-06-01T08:52:56.485Z,1004.47
2016-06-01T08:56:13.559Z,1004.45
2016-06-01T08:59:18.081Z,1004.43
2016-06-01T09:02:30.278Z,1004.43
2016-06-01T09:05:44.177Z,1004.47
2016-06-01T09:08:57.091Z,1004.41
2016-06-01T09:12:13.711Z,1004.45
2016-06-01T09:15:18.158Z,1004.43
2016-06-01T09:18:31.519Z,1004.53
2016-06-01T09:21:44.943Z,1004.49
2016-06-01T09:24:58.383Z,1004.53
2016-06-01T09:28:15.426Z,1004.47
2016-06-01T09:31:19.941Z,1004.51
2016-06-01T09:34:33.078Z,1004.49
2016-06-01T09:37:46.416Z,1004.55
2016-06-01T09:40:59.550Z,1004.43
2016-06-01T09:44:16.875Z,1004.45
2016-06-01T09:47:21.649Z,1004.47
2016-06-01T09:50:34.845Z,1004.47
2016-06-01T09:53:48.119Z,1004.49
2016-06-01T09:57:01.548Z,1004.45
2016-06-01T10:00:18.716Z,1004.37
2016-06-01T10:03:23.255Z,1004.37
2016-06-01T10:06:36.466Z,1004.47
2016-06-01T10:09:49.974Z,1004.45
2016-06-01T10:13:03.389Z,1004.41
2016-06-01T10:16:16.946Z,1004.37
2016-06-01T10:19:28.360Z,1004.35
2016-06-01T10:22:41.603Z,1004.31
2016-06-01T10:25:54.299Z,1004.41
2016-06-01T10:29:11.088Z,1004.31
2016-06-01T10:32:19.661Z,1004.19
2016-06-01T10:35:24.341Z,1004.19
2016-06-01T10:38:37.397Z,1004.15
2016-06-01T10:41:50.483Z,1004.09
2016-06-01T10:45:03.146Z,1004.13
2016-06-01T10:48:16.392Z,1004.09
2016-06-01T10:51:29.182Z,1004.09
2016-06-01T10:54:42.173Z,1003.99
2016-06-01T10:57:55.009Z,1004.01
2016-06-01T11:01:12.159Z,1004.07
2016-06-01T11:04:16.716Z,1004.13
2016-06-01T11:07:29.677Z,1004.13
2016-06-01T11:10:42.794Z,1004.05
2016-06-01T11:13:55.740Z,1004.11
2016-06-01T11:17:13.138Z,1004.17
2016-06-01T11:20:17.587Z,1004.15
2016-06-01T11:23:30.439Z,1004.17
2016-06-01T11:26:43.650Z,1004.27
2016-06-01T11:29:56.706Z,1004.31
2016-06-01T11:33:12.853Z,1004.35
2016-06-01T11:36:17.459Z,1004.41
2016-06-01T11:39:30.608Z,1004.43
2016-06-01T11:42:41.974Z,1004.45
2016-06-01T11:45:54.546Z,1004.35
2016-06-01T11:49:11.600Z,1004.45
2016-06-01T11:52:16.360Z,1004.59
2016-06-01T11:55:29.884Z,1004.47
2016-06-01T11:58:42.767Z,1004.55
2016-06-01T12:01:55.698Z,1004.55
2016-06-01T12:05:13.253Z,1004.55
2016-06-01T12:08:18.014Z,1004.57
2016-06-01T12:11:31.069Z,1004.59
2016-06-01T12:14:43.858Z,1004.59
2016-06-01T12:17:56.677Z,1004.75
2016-06-01T12:21:13.764Z,1004.63
2016-06-01T12:24:18.650Z,1004.57
2016-06-01T12:27:31.892Z,1004.59
2016-06-01T12:30:44.978Z,1004.61
2016-06-01T12:33:58.424Z,1004.63
2016-06-01T12:37:15.728Z,1004.61
2016-06-01T12:40:20.647Z,1004.53
2016-06-01T12:43:33.561Z,1004.65
2016-06-01T12:46:46.975Z,1004.55
2016-06-01T12:50:00.296Z,1004.57
2016-06-01T12:53:17.366Z,1004.57
2016-06-01T12:56:22.237Z,1004.49
2016-06-01T12:59:35.745Z,1004.35
2016-06-01T13:02:49.174Z,1004.37
2016-06-01T13:06:02.667Z,1004.29
2016-06-01T13:09:19.989Z,1004.35
2016-06-01T13:12:24.825Z,1004.31
2016-06-01T13:15:38.146Z,1004.39
2016-06-01T13:18:51.280Z,1004.33
2016-06-01T13:22:04.647Z,1004.27
2016-06-01T13:25:18.015Z,1004.27
2016-06-01T13:28:30.604Z,1004.21
2016-06-01T13:31:43.783Z,1004.17
2016-06-01T13:34:57.291Z,1004.21
2016-06-01T13:38:14.190Z,1004.23
2016-06-01T13:41:19.105Z,1004.21
2016-06-01T13:44:32.303Z,1004.17
2016-06-01T13:54:15.234Z,1004.35
2016-06-01T13:57:20.008Z,1004.39
2016-06-01T14:04:18.980Z,1004.49
2016-06-01T14:07:29.597Z,1004.43
2016-06-01T14:10:42.809Z,1004.45
2016-06-01T14:13:55.645Z,1004.41
2016-06-01T14:17:12.546Z,1004.45
2016-06-01T14:20:17.398Z,1004.45
2016-06-01T14:23:30.469Z,1004.39
2016-06-01T14:26:43.978Z,1004.45
2016-06-01T14:29:56.876Z,1004.41
2016-06-01T14:33:13.730Z,1004.43
2016-06-01T14:36:18.597Z,1004.37
2016-06-01T14:39:31.888Z,1004.29
2016-06-01T14:42:45.113Z,1004.29
2016-06-01T14:45:58.216Z,1004.27
2016-06-01T14:49:15.289Z,1004.33
2016-06-01T14:52:20.172Z,1004.37
2016-06-01T14:55:33.149Z,1004.35
2016-06-01T14:58:46.689Z,1004.45
2016-06-01T15:01:59.867Z,1004.47
2016-06-01T15:05:17.128Z,1004.41
2016-06-01T15:08:21.809Z,1004.45
2016-06-01T15:11:34.895Z,1004.49
2016-06-01T15:14:48.263Z,1004.65
2016-06-01T15:18:01.302Z,1004.55
2016-06-01T15:21:18.109Z,1004.49
2016-06-01T15:24:22.805Z,1004.61
2016-06-01T15:27:35.720Z,1004.55
2016-06-01T15:30:47.837Z,1004.53
2016-06-01T15:34:01.939Z,1004.57
2016-06-01T15:37:18.840Z,1004.65
2016-06-01T15:40:23.520Z,1004.55
2016-06-01T15:43:36.388Z,1004.59
2016-06-01T15:46:49.536Z,1004.59
2016-06-01T15:50:02.216Z,1004.59
2016-06-01T15:53:18.992Z,1004.49
2016-06-01T15:56:23.563Z,1004.49
2016-06-01T15:59:36.337Z,1004.47
2016-06-01T16:02:49.501Z,1004.53
2016-06-01T16:06:02.712Z,1004.63
2016-06-01T16:09:20.348Z,1004.55
2016-06-01T16:12:24.621Z,1004.57
2016-06-01T16:15:37.552Z,1004.53
2016-06-01T16:18:50.779Z,1004.55
2016-06-01T16:22:03.833Z,1004.51
2016-06-01T16:25:20.891Z,1004.59
2016-06-01T16:28:25.556Z,1004.63
2016-06-01T16:31:38.454Z,1004.71
2016-06-01T16:34:51.150Z,1004.73
2016-06-01T16:38:03.846Z,1004.86
2016-06-01T16:41:20.372Z,1004.82
2016-06-01T16:44:24.911Z,1004.82
2016-06-01T16:47:37.528Z,1004.84
2016-06-01T16:50:47.849Z,1004.86
2016-06-01T16:54:00.263Z,1004.9
2016-06-01T16:57:16.946Z,1004.71
2016-06-01T17:00:20.876Z,1004.84
2016-06-01T17:03:31.837Z,1004.75
2016-06-01T17:06:43.267Z,1004.69
2016-06-01T17:09:57.307Z,1004.8
2016-06-01T17:13:14.317Z,1004.8
2016-06-01T17:16:23.450Z,1004.82
2016-06-01T17:19:29.318Z,1004.86
2016-06-01T17:22:41.341Z,1005.02
2016-06-01T17:25:53.724Z,1005
2016-06-01T17:29:06.373Z,1005.08
2016-06-01T17:32:18.884Z,1005.12
2016-06-01T17:35:31.689Z,1005.22
2016-06-01T17:38:46.478Z,1005.28
2016-06-01T17:42:00.986Z,1005.3
2016-06-01T17:45:19.247Z,1005.3
2016-06-01T17:48:23.942Z,1005.32
2016-06-01T17:51:37.108Z,1005.28
2016-06-01T17:54:51.849Z,1005.12
2016-06-01T17:58:05.827Z,1005.12
2016-06-01T18:01:19.790Z,1005.08
2016-06-01T18:04:33.783Z,1005.1
2016-06-01T18:07:47.587Z,1005.12
2016-06-01T18:11:01.564Z,1005.22
2016-06-01T18:14:19.122Z,1005.18
2016-06-01T18:17:25.209Z,1005.12
2016-06-01T18:20:39.607Z,1005.2
2016-06-01T18:23:53.847Z,1005.22
2016-06-01T18:27:07.777Z,1005.22
2016-06-01T18:30:22.189Z,1005.34
2016-06-01T18:33:36.668Z,1005.34
2016-06-01T18:36:50.968Z,1005.4
2016-06-01T18:40:04.526Z,1005.5
2016-06-01T18:43:18.650Z,1005.46
2016-06-01T18:46:32.675Z,1005.46
2016-06-01T18:49:46.964Z,1005.48
2016-06-01T18:53:01.254Z,1005.52
